createdAt,value
2018-08-28T00:00:17.677Z,999.75
2018-08-28T00:01:24.500Z,999.75
2018-08-28T00:02:30.368Z,999.78
2018-08-28T00:03:36.709Z,999.77
2018-08-28T00:04:43.076Z,999.75
2018-08-28T00:05:49.421Z,999.73
2018-08-28T00:06:56.276Z,999.79
2018-08-28T00:08:02.129Z,999.80
2018-08-28T00:09:08.467Z,999.78
2018-08-28T00:10:14.829Z,999.82
2018-08-28T00:11:21.171Z,999.84
2018-08-28T00:12:27.548Z,999.83
2018-08-28T00:13:33.889Z,999.83
2018-08-28T00:14:40.242Z,999.85
2018-08-28T00:15:46.586Z,999.86
2018-08-28T00:16:52.954Z,999.85
2018-08-28T00:17:59.295Z,999.88
2018-08-28T00:19:05.648Z,999.90
2018-08-28T00:20:12.005Z,999.89
2018-08-28T00:21:18.360Z,999.87
2018-08-28T00:22:24.700Z,999.89
2018-08-28T00:23:31.067Z,999.90
2018-08-28T00:24:37.411Z,999.89
2018-08-28T00:25:43.768Z,999.87
2018-08-28T00:26:50.114Z,999.86
2018-08-28T00:27:56.468Z,999.87
2018-08-28T00:29:02.826Z,999.87
2018-08-28T00:30:09.373Z,999.87
2018-08-28T00:31:15.523Z,999.89
2018-08-28T00:32:21.876Z,999.87
2018-08-28T00:33:28.235Z,999.94
2018-08-28T00:34:34.582Z,999.89
2018-08-28T00:35:40.937Z,999.94
2018-08-28T00:36:47.264Z,999.96
2018-08-28T00:37:53.667Z,999.96
2018-08-28T00:38:59.969Z,999.98
2018-08-28T00:40:06.314Z,999.99
2018-08-28T00:41:12.663Z,999.98
2018-08-28T00:42:19.006Z,999.96
2018-08-28T00:43:25.354Z,1000.00
2018-08-28T00:44:31.684Z,999.98
2018-08-28T00:45:38.032Z,999.93
2018-08-28T00:46:44.376Z,999.94
2018-08-28T00:47:50.731Z,999.97
2018-08-28T00:48:57.056Z,1000.01
2018-08-28T00:50:03.409Z,1000.02
2018-08-28T00:51:09.739Z,1000.01
2018-08-28T00:52:16.101Z,1000.02
2018-08-28T00:53:22.411Z,1000.05
2018-08-28T00:54:28.748Z,1000.01
2018-08-28T00:55:35.577Z,1000.01
2018-08-28T00:56:41.420Z,1000.02
2018-08-28T00:57:47.738Z,1000.00
2018-08-28T00:58:54.085Z,1000.02
2018-08-28T01:00:00.412Z,1000.06
2018-08-28T01:01:07.279Z,1000.02
2018-08-28T01:02:13.061Z,1000.11
2018-08-28T01:03:19.397Z,1000.04
2018-08-28T01:04:25.726Z,1000.02
2018-08-28T01:05:32.066Z,1000.10
2018-08-28T01:06:38.394Z,1000.10
2018-08-28T01:07:44.711Z,1000.09
2018-08-28T01:08:51.033Z,1000.05
2018-08-28T01:09:57.358Z,1000.11
2018-08-28T01:11:03.682Z,1000.10
2018-08-28T01:12:10.003Z,1000.12
2018-08-28T01:13:16.826Z,1000.13
2018-08-28T01:14:22.646Z,1000.11
2018-08-28T01:15:28.984Z,1000.13
2018-08-28T01:16:35.309Z,1000.14
2018-08-28T01:17:41.626Z,1000.12
2018-08-28T01:18:47.957Z,1000.14
2018-08-28T01:19:54.290Z,1000.15
2018-08-28T01:21:00.617Z,1000.18
2018-08-28T01:22:06.931Z,1000.18
2018-08-28T01:23:13.268Z,1000.17
2018-08-28T01:24:19.598Z,1000.18
2018-08-28T01:25:25.925Z,1000.19
2018-08-28T01:26:32.254Z,1000.19
2018-08-28T01:27:38.573Z,1000.22
2018-08-28T01:28:44.900Z,1000.24
2018-08-28T01:29:51.230Z,1000.23
2018-08-28T01:30:58.558Z,1000.28
2018-08-28T01:32:03.886Z,1000.24
2018-08-28T01:33:10.212Z,1000.25
2018-08-28T01:34:16.539Z,1000.27
2018-08-28T01:35:22.881Z,1000.24
2018-08-28T01:36:29.213Z,1000.27
2018-08-28T01:37:35.535Z,1000.29
2018-08-28T01:38:41.869Z,1000.26
2018-08-28T01:39:48.217Z,1000.27
2018-08-28T01:40:54.540Z,1000.28
2018-08-28T01:42:00.864Z,1000.32
2018-08-28T01:43:07.197Z,1000.33
2018-08-28T01:44:13.529Z,1000.34
2018-08-28T01:45:19.872Z,1000.33
2018-08-28T01:46:26.184Z,1000.36
2018-08-28T01:47:32.527Z,1000.34
2018-08-28T01:48:38.848Z,1000.35
2018-08-28T01:49:45.277Z,1000.39
2018-08-28T01:50:51.509Z,1000.42
2018-08-28T01:51:57.837Z,1000.43
2018-08-28T01:53:05.263Z,1000.40
2018-08-28T01:54:10.497Z,1000.40
2018-08-28T01:55:16.827Z,1000.40
2018-08-28T01:56:23.145Z,1000.40
2018-08-28T01:57:29.464Z,1000.42
2018-08-28T01:58:35.798Z,1000.40
2018-08-28T01:59:42.122Z,1000.44
2018-08-28T02:00:48.440Z,1000.45
2018-08-28T02:01:54.749Z,1000.43
2018-08-28T02:03:01.077Z,1000.43
2018-08-28T02:04:07.394Z,1000.44
2018-08-28T02:05:13.714Z,1000.43
2018-08-28T02:06:20.025Z,1000.46
2018-08-28T02:07:26.360Z,1000.46
2018-08-28T02:08:32.666Z,1000.42
2018-08-28T02:09:38.978Z,1000.41
2018-08-28T02:10:45.303Z,1000.43
2018-08-28T02:11:51.597Z,1000.45
2018-08-28T02:12:57.917Z,1000.46
2018-08-28T02:14:04.230Z,1000.44
2018-08-28T02:15:10.547Z,1000.45
2018-08-28T02:16:16.849Z,1000.50
2018-08-28T02:17:23.659Z,1000.52
2018-08-28T02:18:29.460Z,1000.50
2018-08-28T02:19:35.772Z,1000.52
2018-08-28T02:20:42.090Z,1000.49
2018-08-28T02:21:48.895Z,1000.51
2018-08-28T02:22:54.702Z,1000.53
2018-08-28T02:24:01.009Z,1000.51
2018-08-28T02:25:07.322Z,1000.59
2018-08-28T02:26:13.632Z,1000.59
2018-08-28T02:27:19.924Z,1000.56
2018-08-28T02:28:26.231Z,1000.57
2018-08-28T02:29:32.532Z,1000.56
2018-08-28T02:30:38.838Z,1000.56
2018-08-28T02:31:45.135Z,1000.58
2018-08-28T02:32:51.441Z,1000.58
2018-08-28T02:33:57.741Z,1000.54
2018-08-28T02:35:04.045Z,1000.56
2018-08-28T02:36:10.345Z,1000.58
2018-08-28T02:37:16.642Z,1000.55
2018-08-28T02:38:22.952Z,1000.55
2018-08-28T02:39:29.245Z,1000.52
2018-08-28T02:40:35.534Z,1000.56
2018-08-28T02:41:41.821Z,1000.54
2018-08-28T02:42:48.122Z,1000.57
2018-08-28T02:43:54.414Z,1000.54
2018-08-28T02:45:00.717Z,1000.55
2018-08-28T02:46:07.494Z,1000.55
2018-08-28T02:47:13.300Z,1000.53
2018-08-28T02:48:19.592Z,1000.55
2018-08-28T02:49:25.880Z,1000.55
2018-08-28T02:50:32.179Z,1000.58
2018-08-28T02:51:38.453Z,1000.58
2018-08-28T02:52:44.742Z,1000.58
2018-08-28T02:53:51.021Z,1000.54
2018-08-28T02:54:57.314Z,1000.54
2018-08-28T02:56:03.669Z,1000.55
2018-08-28T02:57:09.878Z,1000.58
2018-08-28T02:58:16.175Z,1000.55
2018-08-28T02:59:22.451Z,1000.59
2018-08-28T03:00:28.736Z,1000.58
2018-08-28T03:01:35.026Z,1000.55
2018-08-28T03:02:41.292Z,1000.56
2018-08-28T03:03:47.588Z,1000.56
2018-08-28T03:04:53.858Z,1000.57
2018-08-28T03:06:00.157Z,1000.60
2018-08-28T03:07:06.429Z,1000.59
2018-08-28T03:08:12.726Z,1000.60
2018-08-28T03:09:19.001Z,1000.60
2018-08-28T03:10:25.265Z,1000.60
2018-08-28T03:11:32.556Z,1000.60
2018-08-28T03:12:37.815Z,1000.64
2018-08-28T03:13:44.101Z,1000.64
2018-08-28T03:14:50.382Z,1000.62
2018-08-28T03:15:56.701Z,1000.66
2018-08-28T03:17:02.932Z,1000.67
2018-08-28T03:18:09.199Z,1000.66
2018-08-28T03:19:15.477Z,1000.67
2018-08-28T03:20:21.754Z,1000.65
2018-08-28T03:21:28.034Z,1000.68
2018-08-28T03:22:34.307Z,1000.63
2018-08-28T03:23:40.578Z,1000.64
2018-08-28T03:24:47.344Z,1000.64
2018-08-28T03:25:53.128Z,1000.65
2018-08-28T03:26:59.384Z,1000.68
2018-08-28T03:28:05.659Z,1000.65
2018-08-28T03:29:11.998Z,1000.65
2018-08-28T03:30:18.189Z,1000.70
2018-08-28T03:31:24.491Z,1000.71
2018-08-28T03:32:30.728Z,1000.70
2018-08-28T03:33:37.001Z,1000.70
2018-08-28T03:34:43.269Z,1000.69
2018-08-28T03:35:49.539Z,1000.69
2018-08-28T03:36:55.787Z,1000.73
2018-08-28T03:38:02.063Z,1000.70
2018-08-28T03:39:08.337Z,1000.74
2018-08-28T03:40:14.579Z,1000.70
2018-08-28T03:41:20.852Z,1000.70
2018-08-28T03:42:27.097Z,1000.75
2018-08-28T03:43:33.359Z,1000.75
2018-08-28T03:44:39.638Z,1000.77
2018-08-28T03:45:45.873Z,1000.81
2018-08-28T03:46:52.149Z,1000.80
2018-08-28T03:47:58.404Z,1000.83
2018-08-28T03:49:04.663Z,1000.84
2018-08-28T03:50:10.918Z,1000.84
2018-08-28T03:51:17.277Z,1000.87
2018-08-28T03:52:23.427Z,1000.86
2018-08-28T03:53:29.685Z,1000.90
2018-08-28T03:54:35.941Z,1000.87
2018-08-28T03:55:42.186Z,1000.88
2018-08-28T03:56:48.454Z,1000.92
2018-08-28T03:57:55.267Z,1000.89
2018-08-28T03:59:00.959Z,1000.92
2018-08-28T04:00:07.656Z,1000.91
2018-08-28T04:01:13.462Z,1000.94
2018-08-28T04:02:19.706Z,1000.97
2018-08-28T04:03:25.966Z,1000.95
2018-08-28T04:04:32.697Z,1000.95
2018-08-28T04:05:38.456Z,1000.97
2018-08-28T04:06:44.717Z,1001.00
2018-08-28T04:07:50.943Z,1000.97
2018-08-28T04:08:57.198Z,1000.96
2018-08-28T04:10:03.440Z,1001.00
2018-08-28T04:11:09.686Z,1001.02
2018-08-28T04:12:15.923Z,1001.04
2018-08-28T04:13:22.289Z,1001.03
2018-08-28T04:14:28.417Z,1001.01
2018-08-28T04:15:34.658Z,1001.02
2018-08-28T04:16:40.915Z,1001.02
2018-08-28T04:17:47.147Z,1001.04
2018-08-28T04:18:53.399Z,1001.05
2018-08-28T04:19:59.641Z,1001.07
2018-08-28T04:21:05.884Z,1001.08
2018-08-28T04:22:12.123Z,1001.08
2018-08-28T04:23:18.361Z,1001.07
2018-08-28T04:24:24.607Z,1001.01
2018-08-28T04:25:31.846Z,1001.04
2018-08-28T04:26:37.088Z,1001.03
2018-08-28T04:27:43.331Z,1001.04
2018-08-28T04:28:50.069Z,1001.09
2018-08-28T04:29:55.813Z,1001.11
2018-08-28T04:31:02.157Z,1001.12
2018-08-28T04:32:08.293Z,1001.14
2018-08-28T04:33:15.025Z,1001.17
2018-08-28T04:34:20.768Z,1001.20
2018-08-28T04:35:27.006Z,1001.19
2018-08-28T04:36:33.255Z,1001.24
2018-08-28T04:37:39.487Z,1001.24
2018-08-28T04:38:45.719Z,1001.26
2018-08-28T04:39:52.976Z,1001.30
2018-08-28T04:40:58.294Z,1001.27
2018-08-28T04:42:04.442Z,1001.29
2018-08-28T04:43:10.689Z,1001.29
2018-08-28T04:44:16.913Z,1001.30
2018-08-28T04:45:23.644Z,1001.32
2018-08-28T04:46:29.391Z,1001.29
2018-08-28T04:47:35.625Z,1001.32
2018-08-28T04:48:42.361Z,1001.29
2018-08-28T04:49:48.094Z,1001.30
2018-08-28T04:50:54.321Z,1001.33
2018-08-28T04:52:00.568Z,1001.38
2018-08-28T04:53:06.792Z,1001.37
2018-08-28T04:54:13.095Z,1001.34
2018-08-28T04:55:19.267Z,1001.37
2018-08-28T04:56:25.496Z,1001.38
2018-08-28T04:57:31.718Z,1001.41
2018-08-28T04:58:37.963Z,1001.41
2018-08-28T04:59:44.690Z,1001.41
2018-08-28T05:00:50.551Z,1001.44
2018-08-28T05:01:56.668Z,1001.40
2018-08-28T05:03:02.887Z,1001.45
2018-08-28T05:04:09.133Z,1001.46
2018-08-28T05:05:15.361Z,1001.52
2018-08-28T05:06:22.156Z,1001.54
2018-08-28T05:07:27.829Z,1001.54
2018-08-28T05:08:34.082Z,1001.53
2018-08-28T05:09:40.306Z,1001.56
2018-08-28T05:10:46.531Z,1001.57
2018-08-28T05:11:52.801Z,1001.55
2018-08-28T05:12:59.006Z,1001.55
2018-08-28T05:14:05.250Z,1001.52
2018-08-28T05:15:11.483Z,1001.51
2018-08-28T05:16:17.725Z,1001.53
2018-08-28T05:17:23.963Z,1001.53
2018-08-28T05:18:30.278Z,1001.50
2018-08-28T05:19:36.432Z,1001.51
2018-08-28T05:20:42.671Z,1001.51
2018-08-28T05:21:48.920Z,1001.51
2018-08-28T05:22:55.141Z,1001.56
2018-08-28T05:24:01.878Z,1001.57
2018-08-28T05:25:07.637Z,1001.51
2018-08-28T05:26:13.879Z,1001.54
2018-08-28T05:27:20.117Z,1001.55
2018-08-28T05:28:26.864Z,1001.54
2018-08-28T05:29:32.640Z,1001.57
2018-08-28T05:30:38.915Z,1001.57
2018-08-28T05:31:45.099Z,1001.60
2018-08-28T05:32:51.347Z,1001.61
2018-08-28T05:33:57.575Z,1001.60
2018-08-28T05:35:03.827Z,1001.64
2018-08-28T05:36:10.066Z,1001.65
2018-08-28T05:37:16.358Z,1001.67
2018-08-28T05:38:22.579Z,1001.68
2018-08-28T05:39:28.820Z,1001.68
2018-08-28T05:40:35.073Z,1001.70
2018-08-28T05:41:41.335Z,1001.68
2018-08-28T05:42:47.585Z,1001.71
2018-08-28T05:43:53.819Z,1001.72
2018-08-28T05:45:00.577Z,1001.71
2018-08-28T05:46:06.327Z,1001.73
2018-08-28T05:47:12.591Z,1001.76
2018-08-28T05:48:18.859Z,1001.78
2018-08-28T05:49:25.126Z,1001.80
2018-08-28T05:50:31.364Z,1001.83
2018-08-28T05:51:37.631Z,1001.80
2018-08-28T05:52:43.898Z,1001.80
2018-08-28T05:53:50.147Z,1001.83
2018-08-28T05:54:56.445Z,1001.84
2018-08-28T05:56:02.880Z,1001.83
2018-08-28T05:57:08.958Z,1001.86
2018-08-28T05:58:16.291Z,1001.87
2018-08-28T05:59:21.497Z,1001.91
2018-08-28T06:00:27.760Z,1001.92
2018-08-28T06:01:34.517Z,1001.93
2018-08-28T06:02:40.312Z,1001.98
2018-08-28T06:03:46.580Z,1001.95
2018-08-28T06:04:52.863Z,1001.97
2018-08-28T06:05:59.145Z,1002.00
2018-08-28T06:07:05.410Z,1002.02
2018-08-28T06:08:12.266Z,1002.04
2018-08-28T06:09:17.946Z,1002.02
2018-08-28T06:10:24.235Z,1002.00
2018-08-28T06:11:30.503Z,1002.01
2018-08-28T06:12:36.785Z,1001.97
2018-08-28T06:13:43.075Z,1001.98
2018-08-28T06:14:49.420Z,1001.92
2018-08-28T06:15:55.625Z,1001.95
2018-08-28T06:17:02.376Z,1001.96
2018-08-28T06:18:08.234Z,1001.95
2018-08-28T06:19:14.970Z,1001.95
2018-08-28T06:20:20.783Z,1001.91
2018-08-28T06:21:27.055Z,1001.91
2018-08-28T06:22:33.343Z,1001.92
2018-08-28T06:23:39.624Z,1001.90
2018-08-28T06:24:45.941Z,1001.93
2018-08-28T06:25:52.202Z,1001.92
2018-08-28T06:26:58.512Z,1001.98
2018-08-28T06:28:04.803Z,1001.99
2018-08-28T06:29:11.103Z,1001.99
2018-08-28T06:30:17.395Z,1001.98
2018-08-28T06:31:23.691Z,1002.01
2018-08-28T06:32:29.999Z,1002.00
2018-08-28T06:33:36.296Z,1002.01
2018-08-28T06:34:42.595Z,1001.98
2018-08-28T06:35:48.949Z,1001.98
2018-08-28T06:36:55.218Z,1002.00
2018-08-28T06:38:01.524Z,1001.98
2018-08-28T06:39:08.837Z,1002.01
2018-08-28T06:40:14.145Z,1002.03
2018-08-28T06:41:20.465Z,1002.01
2018-08-28T06:42:26.778Z,1002.05
2018-08-28T06:43:33.166Z,1002.05
2018-08-28T06:44:39.411Z,1002.04
2018-08-28T06:45:45.741Z,1002.04
2018-08-28T06:46:52.055Z,1002.03
2018-08-28T06:47:58.381Z,1002.03
2018-08-28T06:49:04.712Z,1002.04
2018-08-28T06:50:11.023Z,1002.03
2018-08-28T06:51:17.356Z,1002.07
2018-08-28T06:52:23.688Z,1002.09
2018-08-28T06:53:30.009Z,1002.08
2018-08-28T06:54:36.346Z,1002.03
2018-08-28T06:55:42.688Z,1002.04
2018-08-28T06:56:49.068Z,1002.10
2018-08-28T06:57:55.367Z,1002.03
2018-08-28T06:59:02.271Z,1002.06
2018-08-28T07:00:08.025Z,1002.03
2018-08-28T07:01:14.363Z,1002.08
2018-08-28T07:02:20.728Z,1002.06
2018-08-28T07:03:27.069Z,1002.08
2018-08-28T07:04:33.914Z,1002.05
2018-08-28T07:05:39.760Z,1002.09
2018-08-28T07:06:46.105Z,1002.06
2018-08-28T07:07:52.492Z,1002.08
2018-08-28T07:08:59.316Z,1002.07
2018-08-28T07:10:05.213Z,1002.08
2018-08-28T07:11:11.520Z,1002.06
2018-08-28T07:12:17.871Z,1002.09
2018-08-28T07:13:24.240Z,1002.11
2018-08-28T07:14:30.585Z,1002.11
2018-08-28T07:15:36.953Z,1002.14
2018-08-28T07:16:43.317Z,1002.10
2018-08-28T07:17:49.687Z,1002.09
2018-08-28T07:18:56.052Z,1002.10
2018-08-28T07:20:02.414Z,1002.12
2018-08-28T07:21:08.790Z,1002.12
2018-08-28T07:22:15.167Z,1002.13
2018-08-28T07:23:21.548Z,1002.10
2018-08-28T07:24:28.376Z,1002.09
2018-08-28T07:25:34.383Z,1002.10
2018-08-28T07:26:40.685Z,1002.09
2018-08-28T07:27:47.084Z,1002.14
2018-08-28T07:28:53.452Z,1002.16
2018-08-28T07:29:59.872Z,1002.13
2018-08-28T07:31:06.233Z,1002.12
2018-08-28T07:32:12.634Z,1002.12
2018-08-28T07:33:19.040Z,1002.13
2018-08-28T07:34:25.449Z,1002.09
2018-08-28T07:35:31.848Z,1002.10
2018-08-28T07:36:38.263Z,1002.08
2018-08-28T07:37:44.684Z,1002.10
2018-08-28T07:38:51.093Z,1002.06
2018-08-28T07:39:57.512Z,1002.06
2018-08-28T07:41:03.929Z,1002.03
2018-08-28T07:42:10.348Z,1001.99
2018-08-28T07:43:16.786Z,1002.00
2018-08-28T07:44:23.188Z,1002.05
2018-08-28T07:45:29.621Z,1002.03
2018-08-28T07:46:36.047Z,1002.02
2018-08-28T07:47:42.465Z,1002.03
2018-08-28T07:48:48.901Z,1002.05
2018-08-28T07:49:55.321Z,1002.03
2018-08-28T07:51:01.753Z,1002.00
2018-08-28T07:52:09.179Z,1001.97
2018-08-28T07:53:14.626Z,1002.02
2018-08-28T07:54:21.047Z,1002.07
2018-08-28T07:55:27.478Z,1002.05
2018-08-28T07:56:33.917Z,1002.07
2018-08-28T07:57:40.355Z,1002.11
2018-08-28T07:58:46.812Z,1002.14
2018-08-28T07:59:53.238Z,1002.13
2018-08-28T08:00:59.692Z,1002.12
2018-08-28T08:02:06.128Z,1002.11
2018-08-28T08:03:12.588Z,1002.10
2018-08-28T08:04:19.015Z,1002.08
2018-08-28T08:05:25.471Z,1002.09
2018-08-28T08:06:31.927Z,1002.13
2018-08-28T08:07:38.404Z,1002.12
2018-08-28T08:08:44.851Z,1002.17
2018-08-28T08:09:51.341Z,1002.14
2018-08-28T08:10:57.776Z,1002.14
2018-08-28T08:12:04.213Z,1002.15
2018-08-28T08:13:10.695Z,1002.10
2018-08-28T08:14:17.153Z,1002.11
2018-08-28T08:15:24.140Z,1002.10
2018-08-28T08:16:30.116Z,1002.09
2018-08-28T08:17:36.605Z,1002.14
2018-08-28T08:18:43.093Z,1002.11
2018-08-28T08:19:49.585Z,1002.10
2018-08-28T08:20:56.086Z,1002.15
2018-08-28T08:22:02.630Z,1002.12
2018-08-28T08:23:09.089Z,1002.13
2018-08-28T08:24:15.587Z,1002.10
2018-08-28T08:25:22.590Z,1002.11
2018-08-28T08:26:28.592Z,1002.11
2018-08-28T08:27:35.103Z,1002.08
2018-08-28T08:28:41.632Z,1002.04
2018-08-28T08:29:48.145Z,1002.02
2018-08-28T08:30:54.681Z,1001.99
2018-08-28T08:32:01.194Z,1002.02
2018-08-28T08:33:07.733Z,1002.04
2018-08-28T08:34:14.260Z,1002.06
2018-08-28T08:35:20.853Z,1002.08
2018-08-28T08:36:27.320Z,1002.01
2018-08-28T08:37:34.354Z,1002.04
2018-08-28T08:38:40.409Z,1002.04
2018-08-28T08:39:46.943Z,1002.03
2018-08-28T08:40:53.480Z,1002.06
2018-08-28T08:42:00.048Z,1002.04
2018-08-28T08:43:06.566Z,1002.01
2018-08-28T08:44:13.115Z,1002.05
2018-08-28T08:45:19.662Z,1002.07
2018-08-28T08:46:26.209Z,1002.05
2018-08-28T08:47:32.764Z,1002.05
2018-08-28T08:48:39.326Z,1002.06
2018-08-28T08:49:45.871Z,1002.04
2018-08-28T08:50:52.439Z,1002.02
2018-08-28T08:51:59.000Z,1001.99
2018-08-28T08:53:05.566Z,1001.97
2018-08-28T08:54:12.133Z,1001.99
2018-08-28T08:55:18.709Z,1001.99
2018-08-28T08:56:25.267Z,1001.99
2018-08-28T08:57:31.923Z,1002.04
2018-08-28T08:58:38.420Z,1002.01
2018-08-28T08:59:44.999Z,1002.01
2018-08-28T09:00:51.562Z,1001.97
2018-08-28T09:01:58.133Z,1001.95
2018-08-28T09:03:04.705Z,1001.96
2018-08-28T09:04:11.299Z,1001.98
2018-08-28T09:05:17.865Z,1001.96
2018-08-28T09:06:24.465Z,1001.98
2018-08-28T09:07:31.045Z,1002.01
2018-08-28T09:08:37.847Z,1001.96
2018-08-28T09:09:44.224Z,1001.97
2018-08-28T09:10:50.844Z,1001.97
2018-08-28T09:11:57.407Z,1001.99
2018-08-28T09:13:04.003Z,1001.96
2018-08-28T09:14:10.596Z,1001.89
2018-08-28T09:15:17.282Z,1001.91
2018-08-28T09:16:23.780Z,1001.92
2018-08-28T09:17:30.381Z,1001.92
2018-08-28T09:18:36.971Z,1001.92
2018-08-28T09:19:43.568Z,1001.97
2018-08-28T09:20:50.175Z,1001.93
2018-08-28T09:21:56.764Z,1001.93
2018-08-28T09:23:03.368Z,1001.92
2018-08-28T09:24:09.964Z,1001.88
2018-08-28T09:25:16.564Z,1001.89
2018-08-28T09:26:23.279Z,1001.88
2018-08-28T09:27:29.787Z,1001.89
2018-08-28T09:28:36.400Z,1001.85
2018-08-28T09:29:43.011Z,1001.89
2018-08-28T09:30:49.639Z,1001.83
2018-08-28T09:31:56.236Z,1001.87
2018-08-28T09:33:02.857Z,1001.82
2018-08-28T09:34:09.848Z,1001.80
2018-08-28T09:35:16.115Z,1001.79
2018-08-28T09:36:22.941Z,1001.77
2018-08-28T09:37:29.374Z,1001.77
2018-08-28T09:38:36.057Z,1001.75
2018-08-28T09:39:42.630Z,1001.73
2018-08-28T09:40:49.270Z,1001.72
2018-08-28T09:41:55.917Z,1001.72
2018-08-28T09:43:02.541Z,1001.70
2018-08-28T09:44:09.285Z,1001.66
2018-08-28T09:45:15.810Z,1001.66
2018-08-28T09:46:22.450Z,1001.66
2018-08-28T09:47:29.093Z,1001.66
2018-08-28T09:48:35.840Z,1001.60
2018-08-28T09:49:42.362Z,1001.66
2018-08-28T09:50:49.191Z,1001.66
2018-08-28T09:51:56.107Z,1001.66
2018-08-28T09:53:02.330Z,1001.66
2018-08-28T09:54:08.949Z,1001.65
2018-08-28T09:55:16.043Z,1001.66
2018-08-28T09:56:22.273Z,1001.67
2018-08-28T09:57:28.886Z,1001.60
2018-08-28T09:58:35.536Z,1001.62
2018-08-28T09:59:42.215Z,1001.66
2018-08-28T10:00:48.859Z,1001.61
2018-08-28T10:01:55.537Z,1001.63
2018-08-28T10:03:02.175Z,1001.65
2018-08-28T10:04:08.841Z,1001.66
2018-08-28T10:05:15.517Z,1001.65
2018-08-28T10:06:22.184Z,1001.65
2018-08-28T10:07:28.868Z,1001.61
2018-08-28T10:08:35.518Z,1001.56
2018-08-28T10:09:42.202Z,1001.57
2018-08-28T10:10:50.107Z,1001.57
2018-08-28T10:11:55.567Z,1001.58
2018-08-28T10:13:02.216Z,1001.52
2018-08-28T10:14:08.924Z,1001.51
2018-08-28T10:15:15.596Z,1001.51
2018-08-28T10:16:22.297Z,1001.50
2018-08-28T10:17:29.057Z,1001.52
2018-08-28T10:18:35.652Z,1001.50
2018-08-28T10:19:42.354Z,1001.51
2018-08-28T10:20:49.043Z,1001.49
2018-08-28T10:21:55.735Z,1001.49
2018-08-28T10:23:02.450Z,1001.45
2018-08-28T10:24:09.135Z,1001.45
2018-08-28T10:25:15.816Z,1001.46
2018-08-28T10:26:22.712Z,1001.44
2018-08-28T10:27:29.224Z,1001.39
2018-08-28T10:28:35.920Z,1001.37
2018-08-28T10:29:42.679Z,1001.42
2018-08-28T10:30:49.311Z,1001.39
2018-08-28T10:31:56.511Z,1001.39
2018-08-28T10:33:02.905Z,1001.39
2018-08-28T10:34:09.732Z,1001.39
2018-08-28T10:35:16.121Z,1001.36
2018-08-28T10:36:22.833Z,1001.37
2018-08-28T10:37:29.535Z,1001.35
2018-08-28T10:38:36.248Z,1001.35
2018-08-28T10:39:42.956Z,1001.32
2018-08-28T10:40:49.683Z,1001.30
2018-08-28T10:41:56.368Z,1001.26
2018-08-28T10:43:03.070Z,1001.26
2018-08-28T10:44:09.785Z,1001.24
2018-08-28T10:45:16.493Z,1001.22
2018-08-28T10:46:23.225Z,1001.21
2018-08-28T10:47:29.927Z,1001.19
2018-08-28T10:48:36.635Z,1001.17
2018-08-28T10:49:43.358Z,1001.12
2018-08-28T10:50:50.569Z,1001.11
2018-08-28T10:51:56.786Z,1001.12
2018-08-28T10:53:03.647Z,1001.12
2018-08-28T10:54:10.238Z,1001.14
2018-08-28T10:55:16.949Z,1001.13
2018-08-28T10:56:23.676Z,1001.13
2018-08-28T10:57:30.396Z,1001.09
2018-08-28T10:58:37.191Z,1001.14
2018-08-28T10:59:43.878Z,1001.08
2018-08-28T11:00:50.613Z,1001.09
2018-08-28T11:01:57.347Z,1001.06
2018-08-28T11:03:04.087Z,1001.05
2018-08-28T11:04:10.848Z,1000.98
2018-08-28T11:05:17.564Z,1000.98
2018-08-28T11:06:24.315Z,1000.98
2018-08-28T11:07:31.061Z,1000.96
2018-08-28T11:08:37.817Z,1000.98
2018-08-28T11:09:44.550Z,1000.96
2018-08-28T11:10:51.263Z,1000.99
2018-08-28T11:11:58.021Z,1000.97
2018-08-28T11:13:05.267Z,1000.95
2018-08-28T11:14:11.516Z,1000.93
2018-08-28T11:15:18.270Z,1000.94
2018-08-28T11:16:25.006Z,1000.97
2018-08-28T11:17:31.771Z,1000.94
2018-08-28T11:18:38.534Z,1000.91
2018-08-28T11:19:45.311Z,1000.92
2018-08-28T11:20:52.121Z,1000.91
2018-08-28T11:21:58.964Z,1000.92
2018-08-28T11:23:05.874Z,1000.93
2018-08-28T11:24:12.809Z,1000.88
2018-08-28T11:25:19.808Z,1000.94
2018-08-28T11:26:26.823Z,1000.93
2018-08-28T11:27:33.863Z,1000.94
2018-08-28T11:28:40.956Z,1000.93
2018-08-28T11:29:48.533Z,1000.92
2018-08-28T11:30:55.649Z,1000.95
2018-08-28T11:32:02.298Z,1000.90
2018-08-28T11:33:09.962Z,1000.85
2018-08-28T11:34:16.675Z,1000.81
2018-08-28T11:35:23.918Z,1000.84
2018-08-28T11:36:31.178Z,1000.85
2018-08-28T11:37:38.961Z,1000.79
2018-08-28T11:38:45.784Z,1000.80
2018-08-28T11:39:53.141Z,1000.81
2018-08-28T11:41:00.513Z,1000.84
2018-08-28T11:42:07.887Z,1000.80
2018-08-28T11:43:15.313Z,1000.79
2018-08-28T11:44:22.734Z,1000.77
2018-08-28T11:45:30.188Z,1000.72
2018-08-28T11:46:38.130Z,1000.70
2018-08-28T11:47:45.101Z,1000.73
2018-08-28T11:48:52.572Z,1000.67
2018-08-28T11:50:00.057Z,1000.68
2018-08-28T11:51:07.535Z,1000.70
2018-08-28T11:52:15.060Z,1000.69
2018-08-28T11:53:22.651Z,1000.70
2018-08-28T11:54:30.067Z,1000.67
2018-08-28T11:55:38.424Z,1000.68
2018-08-28T11:56:45.614Z,1000.67
2018-08-28T11:57:52.666Z,1000.69
2018-08-28T11:59:00.208Z,1000.69
2018-08-28T12:00:07.759Z,1000.69
2018-08-28T12:01:15.299Z,1000.70
2018-08-28T12:02:22.857Z,1000.73
2018-08-28T12:03:30.420Z,1000.70
2018-08-28T12:04:38.493Z,1000.71
2018-08-28T12:05:45.561Z,1000.66
2018-08-28T12:06:53.222Z,1000.64
2018-08-28T12:08:01.709Z,1000.66
2018-08-28T12:09:08.310Z,1000.65
2018-08-28T12:10:16.396Z,1000.64
2018-08-28T12:11:23.505Z,1000.63
2018-08-28T12:12:31.117Z,1000.62
2018-08-28T12:13:38.755Z,1000.60
2018-08-28T12:14:46.688Z,1000.55
2018-08-28T12:15:54.005Z,1000.59
2018-08-28T12:17:01.657Z,1000.56
2018-08-28T12:18:09.804Z,1000.54
2018-08-28T12:19:16.941Z,1000.50
2018-08-28T12:20:25.460Z,1000.51
2018-08-28T12:21:32.267Z,1000.47
2018-08-28T12:22:39.937Z,1000.47
2018-08-28T12:23:47.594Z,1000.40
2018-08-28T12:24:55.258Z,1000.37
2018-08-28T12:26:02.908Z,1000.35
2018-08-28T12:27:10.571Z,1000.40
2018-08-28T12:28:18.234Z,1000.37
2018-08-28T12:29:26.433Z,1000.33
2018-08-28T12:30:33.596Z,1000.31
2018-08-28T12:31:41.271Z,1000.30
2018-08-28T12:32:48.996Z,1000.25
2018-08-28T12:33:56.665Z,1000.23
2018-08-28T12:35:04.380Z,1000.24
2018-08-28T12:36:12.579Z,1000.20
2018-08-28T12:37:20.301Z,1000.12
2018-08-28T12:38:27.999Z,1000.14
2018-08-28T12:39:35.230Z,1000.13
2018-08-28T12:40:42.956Z,1000.14
2018-08-28T12:41:50.667Z,1000.09
2018-08-28T12:42:58.389Z,1000.10
2018-08-28T12:44:06.223Z,1000.08
2018-08-28T12:45:13.830Z,1000.14
2018-08-28T12:46:21.542Z,1000.14
2018-08-28T12:47:29.274Z,1000.13
2018-08-28T12:48:37.035Z,1000.12
2018-08-28T12:49:44.687Z,1000.12
2018-08-28T12:50:52.407Z,1000.12
2018-08-28T12:52:00.127Z,1000.13
2018-08-28T12:53:07.831Z,1000.06
2018-08-28T12:54:15.547Z,1000.06
2018-08-28T12:55:23.298Z,1000.04
2018-08-28T12:56:30.982Z,1000.04
2018-08-28T12:57:38.701Z,1000.02
2018-08-28T12:58:46.410Z,999.97
2018-08-28T12:59:54.116Z,1000.00
2018-08-28T13:01:02.321Z,999.99
2018-08-28T13:02:09.532Z,999.99
2018-08-28T13:03:17.241Z,999.97
2018-08-28T13:04:24.945Z,999.95
2018-08-28T13:05:32.650Z,999.91
2018-08-28T13:06:40.358Z,999.90
2018-08-28T13:07:48.056Z,999.90
2018-08-28T13:08:55.753Z,999.90
2018-08-28T13:10:03.462Z,999.87
2018-08-28T13:11:11.274Z,999.85
2018-08-28T13:12:18.857Z,999.82
2018-08-28T13:13:26.554Z,999.86
2018-08-28T13:14:34.860Z,999.84
2018-08-28T13:15:42.454Z,999.86
2018-08-28T13:16:50.139Z,999.87
2018-08-28T13:17:57.340Z,999.87
2018-08-28T13:19:05.038Z,999.87
2018-08-28T13:20:12.737Z,999.84
2018-08-28T13:21:20.443Z,999.83
2018-08-28T13:22:28.132Z,999.84
2018-08-28T13:23:35.831Z,999.83
2018-08-28T13:24:43.535Z,999.86
2018-08-28T13:25:51.262Z,999.86
2018-08-28T13:26:58.964Z,999.85